Time;durP1;ratioP1;P1;durP2;ratioP2;P2;SDS_P1;SDS_P2;PMS_P1;PMS_P2;Temp;Humidity;BMP_temperature;BMP_pressure;BME280_temperature;BME280_humidity;BME280_pressure;Samples;Min_cycle;Max_cycle;Signal;HPM_P1;HPM_P2
2022/05/28 00:01:41;;;;;;;9.00;2.10;;;9.90;99.90;;;;;;7399324;19;20015;-72
2022/05/28 00:04:11;;;;;;;10.95;1.98;;;10.30;99.90;;;;;;7397771;19;20013;-72
2022/05/28 00:06:40;;;;;;;7.93;2.00;;;9.90;99.90;;;;;;7398090;19;20011;-73
2022/05/28 00:09:08;;;;;;;9.70;2.20;;;9.70;99.90;;;;;;7401890;19;20026;-73
2022/05/28 00:11:41;;;;;;;13.02;1.95;;;10.10;99.90;;;;;;7398078;19;20042;-73
2022/05/28 00:14:13;;;;;;;7.88;1.90;;;9.70;99.90;;;;;;7397044;19;20010;-73
2022/05/28 00:16:42;;;;;;;9.38;1.70;;;9.80;99.90;;;;;;7397981;19;20018;-73
2022/05/28 00:19:11;;;;;;;6.28;1.80;;;9.60;99.90;;;;;;7397659;19;20014;-73
2022/05/28 00:21:40;;;;;;;11.02;1.92;;;9.70;99.90;;;;;;7397996;19;20018;-72
2022/05/28 00:24:09;;;;;;;8.43;1.65;;;9.60;99.90;;;;;;7399762;19;20058;-72
2022/05/28 00:26:41;;;;;;;11.38;1.85;;;9.70;99.90;;;;;;7405085;19;20011;-72
2022/05/28 00:29:13;;;;;;;10.32;2.40;;;9.70;99.90;;;;;;7403028;19;20006;-72
2022/05/28 00:31:42;;;;;;;8.80;2.20;;;9.70;99.90;;;;;;7395456;19;20405;-72
2022/05/28 00:34:11;;;;;;;8.80;1.88;;;9.40;99.90;;;;;;7397061;19;20024;-72
2022/05/28 00:36:40;;;;;;;7.95;1.95;;;9.70;99.90;;;;;;7397066;19;20069;-72
2022/05/28 00:39:10;;;;;;;8.73;1.75;;;;;;;;;;7397856;19;20011;-72
2022/05/28 00:41:38;;;;;;;12.60;2.03;;;9.60;99.90;;;;;;7397692;19;20026;-72
2022/05/28 00:44:12;;;;;;;10.52;2.10;;;9.60;99.90;;;;;;7394444;19;20014;-72
2022/05/28 00:46:43;;;;;;;7.18;1.75;;;9.60;99.90;;;;;;7396166;19;20013;-72
2022/05/28 00:49:18;;;;;;;6.28;1.80;;;9.60;99.90;;;;;;7396040;19;20363;-73
2022/05/28 00:51:53;;;;;;;8.48;2.15;;;9.40;99.90;;;;;;7394131;19;20117;-72
2022/05/28 00:54:23;;;;;;;10.85;2.00;;;9.50;99.90;;;;;;7396664;19;20017;-72
2022/05/28 00:56:53;;;;;;;8.10;2.10;;;9.50;99.90;;;;;;7396284;19;20006;-72
2022/05/28 00:59:25;;;;;;;10.60;2.00;;;9.40;99.90;;;;;;7398370;19;20011;-72
2022/05/28 01:01:58;;;;;;;14.60;1.75;;;9.80;99.90;;;;;;7395443;19;20018;-72
2022/05/28 01:04:35;;;;;;;12.68;2.03;;;9.40;99.90;;;;;;7396412;19;20022;-73
2022/05/28 01:07:10;;;;;;;15.38;2.40;;;9.30;99.90;;;;;;7396432;19;20009;-72
2022/05/28 01:09:49;;;;;;;7.50;1.88;;;9.30;99.90;;;;;;7395255;19;20042;-73
2022/05/28 01:12:24;;;;;;;10.93;2.10;;;9.30;99.90;;;;;;7395327;19;20023;-73
2022/05/28 01:15:03;;;;;;;15.38;2.20;;;9.20;99.90;;;;;;7395255;19;20007;-72
2022/05/28 01:17:36;;;;;;;8.85;2.40;;;9.30;99.90;;;;;;7395523;19;20011;-73
2022/05/28 01:20:10;;;;;;;9.77;1.83;;;9.40;99.90;;;;;;7397190;19;20372;-73
2022/05/28 01:23:05;;;;;;;11.43;2.15;;;9.20;99.90;;;;;;7394888;19;20007;-72
2022/05/28 01:25:48;;;;;;;12.82;1.80;;;9.20;99.90;;;;;;7395390;19;20021;-72
2022/05/28 01:28:23;;;;;;;9.40;1.83;;;9.00;99.90;;;;;;7394896;19;20022;-72
2022/05/28 01:30:54;;;;;;;7.88;1.95;;;9.20;99.90;;;;;;7393390;19;20014;-72
2022/05/28 01:33:24;;;;;;;7.45;2.15;;;9.20;99.90;;;;;;7396997;19;20018;-72
2022/05/28 01:35:55;;;;;;;8.73;1.88;;;9.10;99.90;;;;;;7394715;19;20007;-72
2022/05/28 01:38:26;;;;;;;10.23;2.03;;;9.10;99.90;;;;;;7395007;19;20014;-72
2022/05/28 01:40:56;;;;;;;8.65;1.67;;;9.50;99.90;;;;;;7394851;19;20015;-72
2022/05/28 01:43:29;;;;;;;7.07;1.48;;;9.10;99.90;;;;;;7394272;19;20086;-72
2022/05/28 01:45:58;;;;;;;8.13;2.25;;;9.20;99.90;;;;;;7394588;19;20014;-72
2022/05/28 01:48:28;;;;;;;10.93;1.85;;;9.10;99.90;;;;;;7394538;19;20006;-73
2022/05/28 01:50:58;;;;;;;8.85;1.83;;;9.30;99.90;;;;;;7397195;19;20021;-73
2022/05/28 01:56:10;;;;;;;13.45;2.42;;;9.10;99.90;;;;;;7393734;19;20018;-73
2022/05/28 01:58:42;;;;;;;11.20;2.00;;;9.10;99.90;;;;;;7394293;19;20014;-73
2022/05/28 02:01:12;;;;;;;10.13;2.20;;;9.10;99.90;;;;;;7393834;19;20371;-72
2022/05/28 02:03:44;;;;;;;12.10;1.85;;;9.10;99.90;;;;;;7394334;19;20369;-73
2022/05/28 02:06:13;;;;;;;8.80;1.80;;;8.90;99.90;;;;;;7392114;19;20359;-73
2022/05/28 02:08:46;;;;;;;9.88;2.65;;;9.30;99.90;;;;;;7393727;19;20531;-72
2022/05/28 02:11:22;;;;;;;10.63;1.90;;;9.00;99.90;;;;;;7392633;19;20034;-72
2022/05/28 02:14:12;;;;;;;10.93;2.20;;;9.20;99.90;;;;;;7393062;19;20409;-73
2022/05/28 02:16:50;;;;;;;12.20;2.63;;;9.00;99.90;;;;;;7393081;19;20066;-72
2022/05/28 02:19:27;;;;;;;9.27;1.90;;;9.00;99.90;;;;;;7396020;19;20019;-73
2022/05/28 02:22:06;;;;;;;9.68;2.42;;;9.20;99.90;;;;;;7393655;19;20356;-72
2022/05/28 02:24:40;;;;;;;10.73;2.33;;;9.10;99.90;;;;;;7396255;19;20017;-72
2022/05/28 02:27:15;;;;;;;10.73;2.15;;;9.00;99.90;;;;;;7393339;19;20017;-73
2022/05/28 02:29:47;;;;;;;15.27;3.07;;;8.80;99.90;;;;;;7392584;19;20092;-73
2022/05/28 02:32:24;;;;;;;12.48;2.20;;;10.20;99.90;;;;;;7391223;19;20352;-73
2022/05/28 02:34:53;;;;;;;16.38;2.55;;;9.00;99.90;;;;;;7393042;19;20312;-73
2022/05/28 02:37:25;;;;;;;12.60;2.30;;;9.10;99.90;;;;;;7392969;19;20019;-73
2022/05/28 02:39:54;;;;;;;9.60;2.40;;;9.10;99.90;;;;;;7395548;19;20018;-72
2022/05/28 02:42:23;;;;;;;18.83;2.65;;;9.60;99.90;;;;;;7397096;19;20021;-72
2022/05/28 02:44:55;;;;;;;13.60;2.78;;;9.20;99.90;;;;;;7392102;19;20487;-72
2022/05/28 02:47:23;;;;;;;21.95;2.60;;;9.00;99.90;;;;;;7400611;19;20011;-72
2022/05/28 02:49:55;;;;;;;9.73;2.10;;;9.70;99.90;;;;;;7400185;19;20010;-72
2022/05/28 02:52:24;;;;;;;14.30;2.50;;;8.90;99.90;;;;;;7396763;19;20482;-72
2022/05/28 02:54:53;;;;;;;11.45;2.30;;;9.40;99.90;;;;;;7399917;19;20006;-72
2022/05/28 02:57:22;;;;;;;12.10;2.38;;;9.20;99.90;;;;;;7400174;19;20011;-72
2022/05/28 02:59:56;;;;;;;12.60;2.38;;;9.30;99.90;;;;;;7399896;19;20074;-72
2022/05/28 03:02:25;;;;;;;11.90;2.40;;;9.20;99.90;;;;;;7399760;19;20352;-72
2022/05/28 03:04:53;;;;;;;8.93;2.33;;;9.10;99.90;;;;;;7398709;19;20090;-73
2022/05/28 03:07:22;;;;;;;11.40;2.30;;;9.10;99.90;;;;;;7399766;19;20057;-71
2022/05/28 03:09:51;;;;;;;10.30;2.30;;;9.10;99.90;;;;;;7400570;19;20018;-72
2022/05/28 03:12:20;;;;;;;11.73;2.85;;;;;;;;;;7397854;19;20013;-73
2022/05/28 03:14:49;;;;;;;12.70;2.42;;;8.90;99.90;;;;;;7399150;19;20018;-72
2022/05/28 03:17:21;;;;;;;12.27;2.63;;;9.10;99.90;;;;;;7401020;19;20031;-72
2022/05/28 03:19:49;;;;;;;15.77;2.60;;;9.10;99.90;;;;;;7399312;19;20024;-72
2022/05/28 03:22:18;;;;;;;10.57;2.72;;;9.00;99.90;;;;;;7399732;19;20111;-72
2022/05/28 03:24:47;;;;;;;10.43;2.50;;;9.00;99.90;;;;;;7399100;19;20038;-72
2022/05/28 03:27:16;;;;;;;10.60;2.50;;;9.00;99.90;;;;;;7398994;19;20027;-72
2022/05/28 03:29:45;;;;;;;13.00;2.40;;;9.10;99.90;;;;;;7397800;19;20019;-73
2022/05/28 03:32:14;;;;;;;14.35;2.88;;;9.00;99.90;;;;;;7399259;19;20017;-73
2022/05/28 03:34:45;;;;;;;12.15;2.83;;;8.90;99.90;;;;;;7399032;19;20475;-73
2022/05/28 03:37:14;;;;;;;11.48;2.53;;;;;;;;;;7398919;19;20013;-73
2022/05/28 03:39:44;;;;;;;12.90;2.85;;;9.40;99.90;;;;;;7401357;19;20014;-74
2022/05/28 03:42:13;;;;;;;9.98;2.75;;;8.80;99.90;;;;;;7398353;19;20014;-73
2022/05/28 03:44:42;;;;;;;19.90;3.33;;;;;;;;;;7397978;19;20014;-73
2022/05/28 03:47:11;;;;;;;12.35;2.97;;;9.00;99.90;;;;;;7398283;19;20074;-73
2022/05/28 03:49:42;;;;;;;12.43;2.85;;;9.10;99.90;;;;;;7401530;19;20010;-73
2022/05/28 03:52:14;;;;;;;12.07;2.45;;;9.00;99.90;;;;;;7396075;19;20415;-72
2022/05/28 03:54:43;;;;;;;12.77;2.72;;;9.00;99.90;;;;;;7398770;19;20022;-73
2022/05/28 03:57:16;;;;;;;13.40;2.53;;;9.00;99.90;;;;;;7398104;19;20016;-73
2022/05/28 03:59:45;;;;;;;11.02;2.60;;;9.10;99.90;;;;;;7397959;19;20408;-73
2022/05/28 04:02:14;;;;;;;12.10;2.70;;;;;;;;;;7397507;19;20006;-73
2022/05/28 04:04:44;;;;;;;14.80;2.78;;;9.20;99.90;;;;;;7397103;19;20018;-72
2022/05/28 04:07:16;;;;;;;14.48;2.75;;;9.10;99.90;;;;;;7401892;19;20018;-73
2022/05/28 04:09:45;;;;;;;16.38;2.95;;;9.60;99.90;;;;;;7397516;19;20022;-73
2022/05/28 04:12:14;;;;;;;13.63;2.80;;;9.30;99.90;;;;;;7395595;19;20420;-73
2022/05/28 04:14:44;;;;;;;8.55;2.50;;;9.20;99.90;;;;;;7397338;19;20007;-73
2022/05/28 04:17:13;;;;;;;14.48;2.33;;;;;;;;;;7401909;19;20092;-73
2022/05/28 04:19:42;;;;;;;12.68;2.38;;;;;;;;;;7396819;19;20038;-73
2022/05/28 04:22:11;;;;;;;13.55;2.80;;;8.90;99.90;;;;;;7397390;19;20352;-73
2022/05/28 04:24:42;;;;;;;15.60;2.72;;;9.10;99.90;;;;;;7397300;19;20021;-73
2022/05/28 04:27:11;;;;;;;11.60;2.67;;;9.30;99.90;;;;;;7397387;19;20513;-73
2022/05/28 04:29:40;;;;;;;12.25;2.25;;;9.30;99.90;;;;;;7396434;19;20018;-73
2022/05/28 04:32:10;;;;;;;13.23;3.35;;;9.30;99.90;;;;;;7395400;19;20019;-73
2022/05/28 04:34:39;;;;;;;10.27;2.28;;;9.30;99.90;;;;;;7396635;19;20017;-73
2022/05/28 04:37:08;;;;;;;13.27;2.90;;;;;;;;;;7396655;19;20348;-73
2022/05/28 04:39:37;;;;;;;9.95;2.35;;;9.30;99.90;;;;;;7398067;19;20077;-73
2022/05/28 04:42:10;;;;;;;14.63;2.85;;;9.70;99.90;;;;;;7396671;19;20454;-73
2022/05/28 04:44:39;;;;;;;15.93;2.80;;;9.40;99.90;;;;;;7395552;19;20014;-73
2022/05/28 04:47:08;;;;;;;10.48;2.30;;;;;;;;;;7396218;19;20013;-73
2022/05/28 04:49:37;;;;;;;8.82;2.15;;;9.20;99.90;;;;;;7396119;19;20007;-73
2022/05/28 04:52:07;;;;;;;8.27;2.00;;;9.20;99.90;;;;;;7395243;19;20013;-72
2022/05/28 04:54:36;;;;;;;9.88;1.92;;;;;;;;;;7396634;19;20017;-73
2022/05/28 04:57:05;;;;;;;6.03;1.58;;;9.20;99.90;;;;;;7397940;19;20010;-73
2022/05/28 04:59:37;;;;;;;9.38;1.77;;;9.20;99.90;;;;;;7396325;19;20011;-73
2022/05/28 05:02:07;;;;;;;6.93;1.65;;;9.30;99.90;;;;;;7397935;19;20014;-72
2022/05/28 05:04:37;;;;;;;6.43;1.73;;;;;;;;;;7396861;19;20365;-73
2022/05/28 05:07:06;;;;;;;5.47;2.13;;;9.20;99.90;;;;;;7398960;19;20011;-73
2022/05/28 05:09:35;;;;;;;11.30;2.08;;;;;;;;;;7393620;19;20530;-73
2022/05/28 05:12:05;;;;;;;7.40;2.00;;;9.60;99.90;;;;;;7394771;19;20021;-73
2022/05/28 05:14:36;;;;;;;15.38;2.95;;;9.20;99.90;;;;;;7397731;19;20347;-74
2022/05/28 05:17:06;;;;;;;15.60;2.53;;;9.20;99.90;;;;;;7395084;19;20490;-72
2022/05/28 05:19:35;;;;;;;12.68;2.25;;;9.60;99.90;;;;;;7395555;19;20018;-72
2022/05/28 05:22:04;;;;;;;11.60;2.42;;;9.30;99.90;;;;;;7395211;19;20374;-73
2022/05/28 05:24:33;;;;;;;15.60;2.65;;;9.30;99.90;;;;;;7394968;19;20392;-73
2022/05/28 05:27:02;;;;;;;16.25;3.17;;;9.20;99.90;;;;;;7395892;19;20003;-73
2022/05/28 05:29:31;;;;;;;14.10;2.78;;;9.30;99.90;;;;;;7394893;19;20015;-73
2022/05/28 05:32:03;;;;;;;16.95;2.60;;;9.20;99.90;;;;;;7397343;19;20029;-73
2022/05/28 05:34:32;;;;;;;19.67;3.10;;;9.40;99.90;;;;;;7395125;19;20356;-73
2022/05/28 05:37:01;;;;;;;11.98;2.85;;;9.60;99.90;;;;;;7394322;19;20018;-73
2022/05/28 05:39:30;;;;;;;13.60;2.92;;;9.50;99.90;;;;;;7396528;19;20010;-73
2022/05/28 05:41:59;;;;;;;15.00;2.95;;;;;;;;;;7394592;19;20485;-73
2022/05/28 05:44:29;;;;;;;14.88;3.03;;;9.50;99.90;;;;;;7394779;19;20027;-73
2022/05/28 05:46:58;;;;;;;17.13;3.20;;;;;;;;;;7394246;19;20379;-72
2022/05/28 05:49:29;;;;;;;18.40;3.40;;;9.70;99.90;;;;;;7398831;19;20018;-73
2022/05/28 05:51:58;;;;;;;15.10;3.85;;;9.80;99.90;;;;;;7393760;19;20015;-73
2022/05/28 05:54:27;;;;;;;14.13;3.42;;;;;;;;;;7393803;19;20070;-73
2022/05/28 05:56:56;;;;;;;14.18;3.03;;;10.00;99.90;;;;;;7394377;19;20023;-73
2022/05/28 05:59:26;;;;;;;15.07;2.90;;;10.10;99.90;;;;;;7394460;19;20010;-73
2022/05/28 06:01:54;;;;;;;15.20;3.13;;;10.20;99.90;;;;;;7393484;19;20021;-73
2022/05/28 06:04:23;;;;;;;13.23;2.63;;;10.30;99.90;;;;;;7394169;19;20037;-73
2022/05/28 06:06:55;;;;;;;12.70;2.60;;;10.30;99.90;;;;;;7394170;19;20014;-73
2022/05/28 06:09:25;;;;;;;8.57;2.53;;;10.40;99.90;;;;;;7393591;19;20027;-72
2022/05/28 06:11:54;;;;;;;12.60;2.72;;;10.30;99.90;;;;;;7393110;19;20372;-73
2022/05/28 06:14:22;;;;;;;10.25;3.00;;;10.20;99.90;;;;;;7397309;19;20021;-73
2022/05/28 06:16:52;;;;;;;13.85;2.60;;;;;;;;;;7393563;19;20098;-73
2022/05/28 06:19:21;;;;;;;7.72;2.80;;;10.50;99.90;;;;;;7392755;19;20015;-73
2022/05/28 06:21:50;;;;;;;11.82;3.30;;;;;;;;;;7393467;19;20055;-73
2022/05/28 06:24:21;;;;;;;10.73;2.78;;;10.00;99.90;;;;;;7393681;19;20011;-73
2022/05/28 06:26:50;;;;;;;7.20;2.10;;;9.90;99.90;;;;;;7393215;19;20007;-73
2022/05/28 06:29:19;;;;;;;8.95;2.10;;;10.00;99.90;;;;;;7393162;19;20017;-73
2022/05/28 06:31:48;;;;;;;8.30;1.90;;;9.60;99.90;;;;;;7393280;19;20150;-73
2022/05/28 06:34:18;;;;;;;10.45;1.75;;;9.60;99.90;;;;;;7393008;19;20015;-73
2022/05/28 06:36:47;;;;;;;10.52;2.08;;;9.50;99.90;;;;;;7392926;19;20010;-74
2022/05/28 06:39:16;;;;;;;7.40;1.92;;;9.60;99.90;;;;;;7394781;19;20107;-73
2022/05/28 06:41:48;;;;;;;10.07;2.10;;;9.70;99.90;;;;;;7392795;19;20021;-73
2022/05/28 06:44:16;;;;;;;7.88;2.33;;;9.60;99.90;;;;;;7392263;19;20015;-73
2022/05/28 06:46:46;;;;;;;12.95;3.03;;;9.90;99.90;;;;;;7392891;19;20025;-73
2022/05/28 06:49:15;;;;;;;10.05;2.40;;;;;;;;;;7392751;19;20013;-73
2022/05/28 06:51:44;;;;;;;17.05;3.67;;;10.00;99.90;;;;;;7392111;19;20364;-73
2022/05/28 06:54:13;;;;;;;14.75;3.03;;;10.10;99.90;;;;;;7391880;19;20006;-73
2022/05/28 06:56:42;;;;;;;13.95;3.38;;;10.00;99.90;;;;;;7395467;19;20015;-73
2022/05/28 06:59:13;;;;;;;11.45;2.58;;;10.00;99.90;;;;;;7392339;19;20017;-73
2022/05/28 07:01:42;;;;;;;12.27;2.88;;;10.50;99.90;;;;;;7392332;19;20011;-73
2022/05/28 07:04:11;;;;;;;15.27;2.95;;;10.60;99.90;;;;;;7391960;19;20490;-73
2022/05/28 07:06:40;;;;;;;12.32;2.92;;;10.70;99.90;;;;;;7390244;19;20021;-73
2022/05/28 07:09:09;;;;;;;16.88;3.00;;;10.90;99.90;;;;;;7395809;19;20010;-73
2022/05/28 07:11:38;;;;;;;10.73;2.70;;;11.00;99.90;;;;;;7393684;19;20343;-73
2022/05/28 07:14:07;;;;;;;12.35;2.72;;;11.10;99.90;;;;;;7395272;19;20011;-73
2022/05/28 07:16:39;;;;;;;11.77;2.85;;;11.20;99.90;;;;;;7392343;19;20033;-73
2022/05/28 07:19:07;;;;;;;12.00;2.63;;;11.30;99.90;;;;;;7391166;19;20347;-73
2022/05/28 07:21:37;;;;;;;11.63;2.85;;;;;;;;;;7392506;19;20514;-73
2022/05/28 07:24:06;;;;;;;14.88;2.83;;;11.50;99.90;;;;;;7391777;19;20010;-73
2022/05/28 07:26:35;;;;;;;11.30;2.42;;;;;;;;;;7391918;19;20074;-73
2022/05/28 07:29:04;;;;;;;12.85;2.53;;;11.60;99.90;;;;;;7391217;19;20010;-73
2022/05/28 07:31:33;;;;;;;11.63;2.50;;;;;;;;;;7393592;19;20112;-73
2022/05/28 07:34:05;;;;;;;11.55;2.72;;;11.50;99.90;;;;;;7396245;19;20487;-73
2022/05/28 07:36:35;;;;;;;11.50;2.42;;;11.10;99.90;;;;;;7398411;19;20018;-73
2022/05/28 07:39:05;;;;;;;12.43;2.40;;;11.30;99.90;;;;;;7400558;19;20006;-74
2022/05/28 07:41:35;;;;;;;12.15;2.72;;;11.30;99.90;;;;;;7398581;19;20414;-73
2022/05/28 07:44:05;;;;;;;9.02;2.55;;;11.30;99.90;;;;;;7397447;19;20018;-73
2022/05/28 07:46:35;;;;;;;13.05;3.20;;;11.10;99.90;;;;;;7399243;19;20014;-73
2022/05/28 07:49:08;;;;;;;13.52;2.63;;;11.30;99.90;;;;;;7398516;19;20014;-73
2022/05/28 07:51:38;;;;;;;14.82;2.95;;;11.30;99.90;;;;;;7397940;19;20025;-73
2022/05/28 07:54:07;;;;;;;17.40;3.00;;;;;;;;;;7395548;19;20011;-73
2022/05/28 07:56:36;;;;;;;13.63;3.05;;;11.50;99.90;;;;;;7397837;19;20102;-73
2022/05/28 07:59:05;;;;;;;15.07;2.58;;;11.40;99.90;;;;;;7397953;19;20014;-73
2022/05/28 08:01:36;;;;;;;15.98;3.00;;;11.50;99.90;;;;;;7398362;19;20579;-72
2022/05/28 08:04:08;;;;;;;11.00;2.45;;;11.60;99.90;;;;;;7399785;19;20015;-72
2022/05/28 08:06:37;;;;;;;14.63;2.83;;;11.70;99.90;;;;;;7395697;19;20022;-73
2022/05/28 08:09:08;;;;;;;11.73;2.40;;;11.70;99.90;;;;;;7397438;19;20010;-73
2022/05/28 08:11:37;;;;;;;9.60;2.10;;;;;;;;;;7395777;19;20015;-73
2022/05/28 08:14:06;;;;;;;10.80;2.50;;;11.70;99.90;;;;;;7395490;19;20018;-73
2022/05/28 08:16:35;;;;;;;16.25;2.58;;;11.50;99.90;;;;;;7395279;19;20370;-74
2022/05/28 08:19:07;;;;;;;10.30;2.55;;;11.30;99.90;;;;;;7397209;19;20073;-73
2022/05/28 08:24:23;;;;;;;15.27;3.08;;;11.20;99.90;;;;;;7396066;19;20010;-74
2022/05/28 08:26:52;;;;;;;10.77;2.40;;;11.30;99.90;;;;;;7397394;19;20024;-73
2022/05/28 08:29:22;;;;;;;14.60;2.50;;;11.40;99.90;;;;;;7397136;19;20487;-73
2022/05/28 08:31:51;;;;;;;12.70;2.63;;;11.40;99.90;;;;;;7396571;19;20407;-73
2022/05/28 08:34:22;;;;;;;10.38;2.55;;;11.50;99.90;;;;;;7394810;19;20018;-73
2022/05/28 08:36:51;;;;;;;10.23;2.30;;;11.60;99.90;;;;;;7396487;19;20018;-73
2022/05/28 08:39:20;;;;;;;15.07;2.70;;;11.80;99.90;;;;;;7399580;19;20018;-73
2022/05/28 08:41:57;;;;;;;14.43;2.35;;;11.70;99.90;;;;;;7401452;19;20015;-73
2022/05/28 08:44:28;;;;;;;12.35;3.00;;;11.90;99.90;;;;;;7393833;19;20373;-72
2022/05/28 08:47:01;;;;;;;12.65;2.63;;;12.00;99.90;;;;;;7395941;19;20083;-73
2022/05/28 08:49:34;;;;;;;11.30;2.40;;;12.10;99.90;;;;;;7396902;19;20006;-73
2022/05/28 08:52:09;;;;;;;12.48;2.22;;;12.00;99.90;;;;;;7395925;19;20371;-72
2022/05/28 08:54:40;;;;;;;13.50;2.65;;;12.00;99.90;;;;;;7396689;19;20074;-73
2022/05/28 08:57:13;;;;;;;13.98;2.75;;;12.00;99.90;;;;;;7396266;19;20138;-72
2022/05/28 08:59:50;;;;;;;7.03;2.35;;;12.00;99.90;;;;;;7396281;19;20354;-73
2022/05/28 09:02:25;;;;;;;10.48;2.50;;;11.80;99.90;;;;;;7396370;19;20066;-73
2022/05/28 09:04:59;;;;;;;12.13;2.43;;;11.70;99.90;;;;;;7395480;19;20018;-73
2022/05/28 09:07:29;;;;;;;8.10;2.13;;;11.90;99.90;;;;;;7396124;19;20295;-73
2022/05/28 09:09:59;;;;;;;11.20;2.50;;;12.00;99.90;;;;;;7399981;19;20351;-73
2022/05/28 09:12:32;;;;;;;14.27;2.30;;;12.10;99.90;;;;;;7398343;19;20376;-72
2022/05/28 09:15:01;;;;;;;13.63;2.35;;;12.00;99.90;;;;;;7395809;19;20082;-73
2022/05/28 09:17:33;;;;;;;8.68;2.35;;;12.10;99.90;;;;;;7395544;19;20014;-73
2022/05/28 09:20:08;;;;;;;16.45;2.45;;;12.10;99.90;;;;;;7395331;19;20007;-73
2022/05/28 09:22:37;;;;;;;12.27;2.15;;;12.20;99.90;;;;;;7395804;19;20018;-73
2022/05/28 09:25:08;;;;;;;10.65;2.13;;;12.20;99.90;;;;;;7395092;19;20020;-73
2022/05/28 09:27:46;;;;;;;13.05;2.60;;;12.30;99.90;;;;;;7397190;19;20029;-72
2022/05/28 09:30:32;;;;;;;11.23;2.60;;;12.10;99.90;;;;;;7397282;19;20006;-73
2022/05/28 09:33:33;;;;;;;17.88;2.97;;;12.20;99.90;;;;;;7394957;19;20082;-73
2022/05/28 09:36:13;;;;;;;7.07;2.13;;;12.40;99.90;;;;;;7394216;19;20494;-73
2022/05/28 09:38:51;;;;;;;10.48;2.40;;;12.40;99.90;;;;;;7394004;19;20024;-73
2022/05/28 09:41:38;;;;;;;11.32;2.30;;;12.60;99.90;;;;;;7394599;19;20082;-73
2022/05/28 09:44:17;;;;;;;14.27;2.75;;;12.50;99.90;;;;;;7395168;19;20078;-73
2022/05/28 09:46:47;;;;;;;18.60;2.83;;;12.60;99.90;;;;;;7397606;19;20091;-73
2022/05/28 09:49:19;;;;;;;13.02;2.40;;;12.60;99.90;;;;;;7394635;19;20553;-73
2022/05/28 09:51:59;;;;;;;9.55;2.17;;;12.50;99.90;;;;;;7394719;19;20364;-73
2022/05/28 09:54:30;;;;;;;8.40;2.22;;;12.80;99.90;;;;;;7392622;19;20014;-73
2022/05/28 09:57:01;;;;;;;11.68;2.30;;;12.70;99.90;;;;;;7394257;19;20002;-73
2022/05/28 09:59:35;;;;;;;11.25;2.50;;;12.80;99.90;;;;;;7393602;19;20027;-73
2022/05/28 10:02:17;;;;;;;11.07;2.65;;;12.70;99.90;;;;;;7394251;19;20015;-73
2022/05/28 10:04:52;;;;;;;9.52;2.30;;;12.90;99.90;;;;;;7393374;19;20064;-73
2022/05/28 10:07:35;;;;;;;11.38;2.83;;;12.90;99.90;;;;;;7395570;19;20058;-73
2022/05/28 10:10:17;;;;;;;8.77;1.80;;;12.90;99.90;;;;;;7393933;19;20011;-73
2022/05/28 10:12:46;;;;;;;7.72;1.65;;;12.80;99.90;;;;;;7393272;19;20022;-73
2022/05/28 10:15:18;;;;;;;9.35;2.08;;;12.90;99.90;;;;;;7394103;19;20016;-72
2022/05/28 10:17:56;;;;;;;9.38;1.58;;;13.00;99.90;;;;;;7393621;19;20486;-73
2022/05/28 10:20:25;;;;;;;5.88;1.85;;;;;;;;;;7395237;19;20038;-73
2022/05/28 10:22:58;;;;;;;6.68;1.67;;;13.10;98.50;;;;;;7393391;19;20074;-73
2022/05/28 10:25:33;;;;;;;9.32;2.08;;;13.10;97.40;;;;;;7393527;19;20011;-73
2022/05/28 10:28:02;;;;;;;13.32;2.38;;;13.00;99.90;;;;;;7393772;19;20601;-73
2022/05/28 10:30:35;;;;;;;8.90;1.58;;;13.10;98.40;;;;;;7393010;19;20028;-73
2022/05/28 10:33:08;;;;;;;11.20;2.60;;;13.30;99.90;;;;;;7392839;19;20015;-73
2022/05/28 10:35:37;;;;;;;14.13;2.80;;;13.30;99.00;;;;;;7393943;19;20014;-73
2022/05/28 10:38:17;;;;;;;11.45;1.83;;;13.40;97.40;;;;;;7398147;19;20038;-72
2022/05/28 10:40:52;;;;;;;9.77;1.70;;;13.30;99.40;;;;;;7393538;19;20078;-73
2022/05/28 10:43:27;;;;;;;5.85;1.70;;;13.00;99.80;;;;;;7392521;19;20010;-73
2022/05/28 10:46:07;;;;;;;4.57;1.65;;;13.00;99.60;;;;;;7393115;19;20011;-74
2022/05/28 10:48:37;;;;;;;7.18;1.60;;;13.20;99.90;;;;;;7394295;19;20028;-73
2022/05/28 10:51:18;;;;;;;4.53;1.40;;;13.40;97.40;;;;;;7392469;19;20074;-73
2022/05/28 10:54:07;;;;;;;6.70;1.70;;;13.70;98.00;;;;;;7393102;19;20487;-73
2022/05/28 10:56:50;;;;;;;7.20;1.80;;;13.70;96.80;;;;;;7393202;19;20482;-73
2022/05/28 10:59:34;;;;;;;9.98;1.65;;;13.50;95.50;;;;;;7392501;19;20007;-73
2022/05/28 11:02:14;;;;;;;5.57;1.50;;;13.40;96.00;;;;;;7391421;19;20479;-73
2022/05/28 11:04:57;;;;;;;8.02;1.88;;;13.50;97.20;;;;;;7395842;19;20018;-73
2022/05/28 11:07:51;;;;;;;8.38;2.17;;;13.50;97.00;;;;;;7397825;19;20339;-72
2022/05/28 11:10:46;;;;;;;8.55;1.90;;;13.60;98.00;;;;;;7400589;19;20034;-73
2022/05/28 11:13:46;;;;;;;11.43;2.13;;;13.60;98.30;;;;;;7399015;19;20010;-73
2022/05/28 11:16:38;;;;;;;8.20;1.83;;;13.60;98.50;;;;;;7399692;19;20380;-72
2022/05/28 11:19:22;;;;;;;8.07;2.15;;;13.10;97.70;;;;;;7399488;19;20034;-73
2022/05/28 11:22:15;;;;;;;10.15;2.20;;;13.10;97.90;;;;;;7399922;19;20014;-73
2022/05/28 11:24:55;;;;;;;10.38;3.17;;;13.20;98.00;;;;;;7399106;19;20022;-73
2022/05/28 11:27:48;;;;;;;8.43;2.42;;;13.50;97.20;;;;;;7399920;19;20027;-72
2022/05/28 11:30:22;;;;;;;10.15;2.42;;;13.50;98.10;;;;;;7397181;19;20011;-73
2022/05/28 11:32:58;;;;;;;9.00;2.05;;;13.70;97.60;;;;;;7398742;19;20015;-72
2022/05/28 11:35:38;;;;;;;9.82;2.47;;;13.90;96.90;;;;;;7396427;19;20018;-73
2022/05/28 11:38:16;;;;;;;12.15;2.15;;;13.70;97.20;;;;;;7399179;19;20019;-73
2022/05/28 11:40:57;;;;;;;9.82;2.22;;;13.50;97.00;;;;;;7398516;19;20066;-73
2022/05/28 11:43:33;;;;;;;9.75;1.88;;;13.60;97.60;;;;;;7398415;19;20471;-72
2022/05/28 11:46:12;;;;;;;7.13;1.70;;;13.90;97.70;;;;;;7400470;19;20020;-73
2022/05/28 11:51:31;;;;;;;7.35;2.13;;;13.90;97.30;;;;;;7398700;19;20333;-72
2022/05/28 11:54:08;;;;;;;11.60;2.25;;;14.20;96.00;;;;;;7397573;19;20015;-73
2022/05/28 11:56:37;;;;;;;7.10;2.10;;;14.10;94.40;;;;;;7398152;19;20479;-73
2022/05/28 11:59:13;;;;;;;9.48;2.10;;;14.00;95.70;;;;;;7398187;19;20014;-73
2022/05/28 12:01:49;;;;;;;8.07;1.70;;;14.30;95.70;;;;;;7399195;19;20025;-73
2022/05/28 12:04:19;;;;;;;7.47;2.00;;;14.40;95.20;;;;;;7399058;19;20017;-73
2022/05/28 12:07:02;;;;;;;6.70;1.80;;;14.50;95.10;;;;;;7395827;19;20070;-73
2022/05/28 12:09:35;;;;;;;6.53;1.58;;;14.60;93.50;;;;;;7402374;19;20007;-75
2022/05/28 12:12:16;;;;;;;5.82;1.95;;;14.60;93.60;;;;;;7397887;19;20078;-73
2022/05/28 12:14:51;;;;;;;8.80;1.80;;;14.60;93.00;;;;;;7396671;19;20502;-73
2022/05/28 12:17:29;;;;;;;7.55;1.83;;;14.70;93.30;;;;;;7396509;19;20024;-72
2022/05/28 12:20:01;;;;;;;8.85;1.85;;;14.60;93.10;;;;;;7399863;19;20547;-72
2022/05/28 12:22:34;;;;;;;12.52;2.10;;;14.30;95.90;;;;;;7397195;19;20020;-72
2022/05/28 12:25:20;;;;;;;7.85;2.08;;;13.50;99.90;;;;;;7397052;19;20038;-72
2022/05/28 12:27:52;;;;;;;7.43;1.70;;;13.30;99.90;;;;;;7396934;19;20082;-72
2022/05/28 12:30:33;;;;;;;8.75;2.13;;;13.20;99.90;;;;;;7396313;19;20070;-73
2022/05/28 12:33:03;;;;;;;5.43;1.73;;;12.70;99.90;;;;;;7397584;19;20017;-73
2022/05/28 12:35:44;;;;;;;7.78;2.00;;;12.70;99.90;;;;;;7395693;19;20010;-72
2022/05/28 12:38:30;;;;;;;9.23;2.00;;;12.40;99.90;;;;;;7396610;19;20015;-73
2022/05/28 12:41:01;;;;;;;6.25;1.88;;;12.40;99.90;;;;;;7397558;19;20348;-73
2022/05/28 12:43:33;;;;;;;9.68;1.98;;;12.90;99.90;;;;;;7396199;19;20014;-73
2022/05/28 12:46:16;;;;;;;7.88;2.30;;;13.20;99.90;;;;;;7397030;19;20007;-73
2022/05/28 12:48:46;;;;;;;11.30;2.88;;;13.30;99.90;;;;;;7397060;19;20194;-73
2022/05/28 12:51:30;;;;;;;11.02;3.03;;;13.20;99.90;;;;;;7396854;19;20010;-73
2022/05/28 12:54:00;;;;;;;10.05;2.38;;;13.10;99.90;;;;;;7400049;19;20021;-73
2022/05/28 12:56:45;;;;;;;12.48;2.90;;;13.00;99.90;;;;;;7396103;19;20066;-73
2022/05/28 12:59:16;;;;;;;12.07;2.85;;;12.70;99.90;;;;;;7396112;19;20014;-73
2022/05/28 13:01:58;;;;;;;15.00;2.67;;;12.90;99.90;;;;;;7395204;19;20029;-72
2022/05/28 13:04:31;;;;;;;10.18;2.13;;;12.80;99.90;;;;;;7400271;19;20010;-72
2022/05/28 13:07:03;;;;;;;8.13;2.28;;;13.20;99.90;;;;;;7393727;19;20138;-72
2022/05/28 13:09:41;;;;;;;8.32;2.40;;;13.20;99.50;;;;;;7397019;19;20007;-72
2022/05/28 13:12:26;;;;;;;7.88;2.20;;;13.30;99.90;;;;;;7396381;19;20019;-73
2022/05/28 13:15:28;;;;;;;10.82;2.50;;;13.30;99.90;;;;;;7394130;19;20406;-72
2022/05/28 13:18:25;;;;;;;8.07;2.15;;;13.50;99.60;;;;;;7396230;19;20467;-73
2022/05/28 13:21:17;;;;;;;6.53;1.65;;;14.00;97.20;;;;;;7395713;19;20014;-73
2022/05/28 13:24:24;;;;;;;5.47;1.50;;;14.00;95.30;;;;;;7396179;19;20025;-73
2022/05/28 13:27:19;;;;;;;7.80;1.95;;;14.20;95.10;;;;;;7396242;19;20075;-73
2022/05/28 13:30:02;;;;;;;9.18;1.70;;;14.70;94.00;;;;;;7393348;19;20010;-73
2022/05/28 13:32:35;;;;;;;5.38;1.80;;;14.60;93.00;;;;;;7395776;19;20029;-73